createdAt,value
2018-08-10T00:01:24.825Z,17.60
2018-08-10T00:03:53.208Z,17.40
2018-08-10T00:06:19.989Z,17.40
2018-08-10T00:08:48.440Z,17.40
2018-08-10T00:11:15.115Z,17.40
2018-08-10T00:13:41.925Z,17.30
2018-08-10T00:16:09.571Z,17.30
2018-08-10T00:18:37.055Z,17.20
2018-08-10T00:21:04.009Z,17.20
2018-08-10T00:23:31.450Z,17.20
2018-08-10T00:25:59.186Z,17.10
2018-08-10T00:28:28.379Z,17.00
2018-08-10T00:30:56.027Z,17.00
2018-08-10T00:33:23.589Z,17.10
2018-08-10T00:35:53.053Z,17.00
2018-08-10T00:38:19.768Z,17.00
2018-08-10T00:40:46.452Z,16.90
2018-08-10T00:43:13.571Z,16.90
2018-08-10T00:45:41.040Z,16.90
2018-08-10T00:48:09.580Z,17.00
2018-08-10T00:50:37.651Z,16.90
2018-08-10T00:53:07.963Z,17.20
2018-08-10T00:55:39.849Z,17.10
2018-08-10T00:58:07.177Z,17.10
2018-08-10T01:00:34.602Z,17.30
2018-08-10T01:03:01.482Z,17.30
2018-08-10T01:05:29.143Z,17.30
2018-08-10T01:07:57.737Z,17.40
2018-08-10T01:10:25.567Z,17.50
2018-08-10T01:12:53.221Z,17.40
2018-08-10T01:15:19.895Z,17.60
2018-08-10T01:17:47.552Z,17.60
2018-08-10T01:20:14.988Z,17.50
2018-08-10T01:22:42.519Z,17.60
2018-08-10T01:25:13.029Z,17.60
2018-08-10T01:27:42.257Z,17.80
2018-08-10T01:30:10.165Z,17.70
2018-08-10T01:32:41.541Z,17.80
2018-08-10T01:35:10.024Z,17.80
2018-08-10T01:37:37.293Z,17.80
2018-08-10T01:40:03.985Z,17.80
2018-08-10T01:42:31.438Z,17.90
2018-08-10T01:44:59.068Z,17.80
2018-08-10T01:47:26.004Z,17.70
2018-08-10T01:49:54.790Z,17.50
2018-08-10T01:52:21.451Z,17.50
2018-08-10T01:54:48.217Z,17.60
2018-08-10T01:57:15.643Z,17.60
2018-08-10T01:59:43.128Z,17.60
2018-08-10T02:02:12.883Z,17.60
2018-08-10T02:04:39.550Z,17.50
2018-08-10T02:07:07.227Z,17.40
2018-08-10T02:09:34.681Z,17.50
2018-08-10T02:12:02.451Z,17.60
2018-08-10T02:14:29.957Z,17.50
2018-08-10T02:16:57.627Z,17.80
2018-08-10T02:19:25.125Z,17.60
2018-08-10T02:21:51.796Z,17.50
2018-08-10T02:24:19.208Z,17.60
2018-08-10T02:26:45.886Z,17.50
2018-08-10T02:29:12.943Z,17.40
2018-08-10T02:31:41.663Z,17.70
2018-08-10T02:34:08.383Z,17.70
2018-08-10T02:36:35.041Z,17.70
2018-08-10T02:39:01.767Z,17.90
2018-08-10T02:41:28.495Z,18.10
2018-08-10T02:43:55.169Z,18.00
2018-08-10T02:46:21.827Z,18.00
2018-08-10T02:48:49.277Z,18.10
2018-08-10T02:51:15.970Z,18.10
2018-08-10T02:53:42.634Z,18.00
2018-08-10T02:56:10.235Z,18.10
2018-08-10T02:58:36.990Z,18.30
2018-08-10T03:01:04.431Z,18.50
2018-08-10T03:03:31.127Z,18.50
2018-08-10T03:06:00.118Z,18.60
2018-08-10T03:08:28.410Z,18.60
2018-08-10T03:10:55.855Z,18.60
2018-08-10T03:13:23.667Z,18.70
2018-08-10T03:15:51.197Z,18.80
2018-08-10T03:18:17.949Z,18.80
2018-08-10T03:20:46.895Z,19.00
2018-08-10T03:23:13.625Z,19.00
2018-08-10T03:25:40.693Z,19.10
2018-08-10T03:28:07.542Z,19.10
2018-08-10T03:30:34.213Z,19.20
2018-08-10T03:33:01.477Z,19.30
2018-08-10T03:35:30.718Z,19.40
2018-08-10T03:37:57.393Z,19.40
2018-08-10T03:40:24.860Z,19.60
2018-08-10T03:42:51.558Z,19.60
2018-08-10T03:45:18.230Z,19.70
2018-08-10T03:47:44.977Z,19.80
2018-08-10T03:50:11.710Z,19.80
2018-08-10T03:52:39.200Z,20.10
2018-08-10T03:55:07.644Z,20.10
2018-08-10T03:57:34.322Z,20.10
2018-08-10T04:00:01.734Z,20.20
2018-08-10T04:02:28.463Z,20.20
2018-08-10T04:04:55.163Z,20.30
2018-08-10T04:07:21.902Z,20.40
2018-08-10T04:09:48.592Z,20.60
2018-08-10T04:12:15.268Z,20.60
2018-08-10T04:14:42.762Z,20.80
2018-08-10T04:17:09.517Z,20.90
2018-08-10T04:19:36.290Z,21.10
2018-08-10T04:22:02.954Z,21.40
2018-08-10T04:24:30.440Z,21.80
2018-08-10T04:26:57.325Z,22.00
2018-08-10T04:29:23.997Z,22.20
2018-08-10T04:31:51.426Z,22.20
2018-08-10T04:34:18.514Z,22.20
2018-08-10T04:36:45.953Z,22.20
2018-08-10T04:39:13.390Z,22.50
2018-08-10T04:41:40.134Z,22.40
2018-08-10T04:44:06.815Z,22.40
2018-08-10T04:46:33.511Z,22.40
2018-08-10T04:49:00.164Z,22.40
2018-08-10T04:51:27.588Z,22.40
2018-08-10T04:54:10.633Z,22.30
2018-08-10T04:56:37.615Z,22.30
2018-08-10T04:59:04.368Z,22.40
2018-08-10T05:01:31.040Z,22.30
2018-08-10T05:03:59.295Z,22.30
2018-08-10T05:06:26.028Z,22.40
2018-08-10T05:08:52.731Z,22.40
2018-08-10T05:11:20.116Z,22.50
2018-08-10T05:13:46.966Z,22.50
2018-08-10T05:16:14.468Z,22.60
2018-08-10T05:18:42.894Z,22.50
2018-08-10T05:21:09.701Z,22.50
2018-08-10T05:23:37.105Z,22.40
2018-08-10T05:26:03.801Z,22.30
2018-08-10T05:28:30.552Z,22.30
2018-08-10T05:30:58.005Z,22.40
2018-08-10T05:33:25.446Z,22.40
2018-08-10T05:35:52.199Z,22.40
2018-08-10T05:38:19.623Z,22.60
2018-08-10T05:40:46.320Z,22.50
2018-08-10T05:43:13.197Z,22.60
2018-08-10T05:45:39.993Z,22.70
2018-08-10T05:48:07.469Z,23.20
2018-08-10T05:50:34.222Z,23.10
2018-08-10T05:53:01.027Z,23.10
2018-08-10T05:55:28.478Z,23.20
2018-08-10T05:57:56.074Z,23.20
2018-08-10T06:00:22.728Z,23.10
2018-08-10T06:02:49.503Z,23.10
2018-08-10T06:05:16.212Z,23.10
2018-08-10T06:07:43.011Z,23.10
2018-08-10T06:10:10.552Z,23.20
2018-08-10T06:12:37.229Z,23.10
2018-08-10T06:15:03.908Z,23.20
2018-08-10T06:17:30.661Z,23.20
2018-08-10T06:19:57.421Z,23.10
2018-08-10T06:22:24.068Z,23.30
2018-08-10T06:24:51.535Z,23.40
2018-08-10T06:27:19.146Z,23.40
2018-08-10T06:29:46.765Z,23.40
2018-08-10T06:32:13.436Z,23.40
2018-08-10T06:34:40.873Z,23.40
2018-08-10T06:37:07.730Z,23.30
2018-08-10T06:39:36.177Z,23.60
2018-08-10T06:42:03.193Z,23.60
2018-08-10T06:44:30.700Z,23.60
2018-08-10T06:46:57.336Z,23.60
2018-08-10T06:49:24.027Z,23.70
2018-08-10T06:51:50.765Z,23.90
2018-08-10T06:54:17.429Z,23.90
2018-08-10T06:56:44.890Z,24.30
2018-08-10T06:59:12.396Z,24.20
2018-08-10T07:01:39.294Z,24.20
2018-08-10T07:04:05.929Z,24.30
2018-08-10T07:06:33.423Z,24.20
2018-08-10T07:09:00.064Z,24.10
2018-08-10T07:11:26.730Z,24.30
2018-08-10T07:13:53.425Z,24.20
2018-08-10T07:16:20.156Z,24.00
2018-08-10T07:18:46.811Z,23.90
2018-08-10T07:21:13.453Z,23.80
2018-08-10T07:23:40.190Z,23.80
2018-08-10T07:26:06.903Z,23.60
2018-08-10T07:28:34.303Z,23.20
2018-08-10T07:31:01.781Z,22.90
2018-08-10T07:33:28.550Z,22.90
2018-08-10T07:35:56.581Z,22.60
2018-08-10T07:38:23.358Z,22.60
2018-08-10T07:40:50.048Z,22.50
2018-08-10T07:43:16.892Z,22.60
2018-08-10T07:45:44.346Z,22.80
2018-08-10T07:48:11.020Z,22.70
2018-08-10T07:50:37.760Z,22.90
2018-08-10T07:53:05.210Z,22.90
2018-08-10T07:55:31.867Z,22.90
2018-08-10T07:57:59.503Z,22.80
2018-08-10T08:00:26.215Z,22.80
2018-08-10T08:02:52.960Z,22.70
2018-08-10T08:05:19.746Z,22.60
2018-08-10T08:07:47.239Z,22.50
2018-08-10T08:10:14.228Z,22.50
2018-08-10T08:12:41.760Z,22.60
2018-08-10T08:15:08.844Z,22.60
2018-08-10T08:17:35.628Z,22.70
2018-08-10T08:20:02.597Z,22.90
2018-08-10T08:22:29.305Z,23.00
2018-08-10T08:24:56.732Z,24.30
2018-08-10T08:27:23.578Z,24.30
2018-08-10T08:29:50.274Z,25.60
2018-08-10T08:32:17.080Z,27.50
2018-08-10T08:34:44.642Z,29.60
2018-08-10T08:37:11.942Z,29.50
2018-08-10T08:39:39.129Z,30.30
2018-08-10T08:42:06.612Z,32.80
2018-08-10T08:44:35.294Z,32.60
2018-08-10T08:47:02.877Z,33.60
2018-08-10T08:49:29.579Z,33.70
2018-08-10T08:51:57.146Z,34.30
2018-08-10T08:54:36.029Z,34.20
2018-08-10T08:57:02.769Z,34.50
2018-08-10T08:59:29.502Z,34.50
2018-08-10T09:01:57.477Z,34.10
2018-08-10T09:04:24.292Z,33.20
2018-08-10T09:06:50.968Z,32.80
2018-08-10T09:09:36.673Z,32.60
2018-08-10T09:12:04.320Z,31.60
2018-08-10T09:14:38.264Z,31.50
2018-08-10T09:17:05.756Z,31.30
2018-08-10T09:19:32.448Z,31.20
2018-08-10T09:21:59.896Z,29.90
2018-08-10T09:24:27.344Z,29.60
2018-08-10T09:26:54.864Z,29.40
2018-08-10T09:29:21.560Z,29.40
2018-08-10T09:31:49.005Z,29.50
2018-08-10T09:34:15.753Z,29.50
2018-08-10T09:36:43.397Z,29.60
2018-08-10T09:39:10.161Z,29.60
2018-08-10T09:41:37.583Z,29.90
2018-08-10T09:44:04.510Z,29.80
2018-08-10T09:46:31.591Z,30.10
2018-08-10T09:48:58.343Z,30.10
2018-08-10T09:51:25.026Z,30.40
2018-08-10T09:53:51.736Z,30.60
2018-08-10T09:56:18.509Z,30.20
2018-08-10T09:58:45.505Z,30.40
2018-08-10T10:01:13.035Z,30.90
2018-08-10T10:03:39.740Z,30.90
2018-08-10T10:06:06.532Z,31.00
2018-08-10T10:08:33.212Z,31.00
2018-08-10T10:10:59.905Z,30.80
2018-08-10T10:13:26.783Z,30.50
2018-08-10T10:15:53.530Z,30.10
2018-08-10T10:18:20.913Z,30.10
2018-08-10T10:20:47.776Z,30.10
2018-08-10T10:23:14.530Z,29.90
2018-08-10T10:25:41.235Z,30.20
2018-08-10T10:28:08.023Z,30.40
2018-08-10T10:30:34.722Z,30.30
2018-08-10T10:33:02.238Z,30.20
2018-08-10T10:35:29.025Z,30.20
2018-08-10T10:37:55.668Z,30.30
2018-08-10T10:40:22.432Z,30.40
2018-08-10T10:42:49.130Z,30.30
2018-08-10T10:45:15.846Z,30.30
2018-08-10T10:47:43.356Z,29.70
2018-08-10T10:50:10.152Z,29.70
2018-08-10T10:52:36.843Z,29.50
2018-08-10T10:55:04.009Z,29.30
2018-08-10T10:57:30.685Z,29.00
2018-08-10T10:59:58.174Z,29.10
2018-08-10T11:02:24.873Z,29.10
2018-08-10T11:04:52.355Z,28.80
2018-08-10T11:07:19.069Z,28.80
2018-08-10T11:09:47.562Z,29.70
2018-08-10T11:12:14.548Z,29.60
2018-08-10T11:14:41.256Z,29.90
2018-08-10T11:17:07.947Z,29.60
2018-08-10T11:19:34.689Z,29.70
2018-08-10T11:22:01.513Z,29.70
2018-08-10T11:24:28.198Z,29.90
2018-08-10T11:26:55.600Z,29.50
2018-08-10T11:29:22.314Z,29.40
2018-08-10T11:31:48.992Z,29.40
2018-08-10T11:34:15.738Z,29.30
2018-08-10T11:36:42.666Z,29.50
2018-08-10T11:39:09.378Z,29.40
2018-08-10T11:41:36.046Z,29.70
2018-08-10T11:44:03.541Z,30.40
2018-08-10T11:46:31.004Z,30.70
2018-08-10T11:48:58.563Z,30.60
2018-08-10T11:51:25.975Z,30.30
2018-08-10T11:53:52.664Z,30.30
2018-08-10T11:56:20.180Z,30.60
2018-08-10T11:58:46.846Z,30.70
2018-08-10T12:01:13.624Z,30.80
2018-08-10T12:03:40.354Z,30.60
2018-08-10T12:06:07.135Z,30.40
2018-08-10T12:08:33.836Z,30.40
2018-08-10T12:11:00.599Z,30.20
2018-08-10T12:13:27.324Z,30.30
2018-08-10T12:15:54.000Z,30.50
2018-08-10T12:18:20.850Z,30.60
2018-08-10T12:20:48.328Z,30.80
2018-08-10T12:23:15.041Z,30.70
2018-08-10T12:25:41.785Z,30.60
2018-08-10T12:28:08.490Z,30.40
2018-08-10T12:30:35.325Z,30.20
2018-08-10T12:33:02.026Z,29.90
2018-08-10T12:35:28.735Z,29.90
2018-08-10T12:37:55.540Z,29.70
2018-08-10T12:40:22.232Z,29.70
2018-08-10T12:42:48.967Z,30.10
2018-08-10T12:45:15.934Z,29.90
2018-08-10T12:47:42.807Z,29.90
2018-08-10T12:50:09.783Z,29.60
2018-08-10T12:52:36.739Z,29.90
2018-08-10T12:55:03.458Z,29.40
2018-08-10T12:57:30.605Z,29.20
2018-08-10T12:59:57.440Z,29.50
2018-08-10T13:02:24.129Z,29.70
2018-08-10T13:04:50.875Z,29.60
2018-08-10T13:07:17.571Z,29.50
2018-08-10T13:09:44.335Z,30.10
2018-08-10T13:12:11.001Z,30.00
2018-08-10T13:14:37.661Z,30.10
2018-08-10T13:17:05.148Z,30.40
2018-08-10T13:19:31.880Z,30.40
2018-08-10T13:21:58.865Z,30.40
2018-08-10T13:24:25.696Z,30.30
2018-08-10T13:26:52.335Z,30.30
2018-08-10T13:29:19.013Z,30.00
2018-08-10T13:31:46.490Z,29.40
2018-08-10T13:34:13.246Z,29.40
2018-08-10T13:36:58.473Z,29.10
2018-08-10T13:39:47.497Z,29.00
2018-08-10T13:42:14.345Z,29.20
2018-08-10T13:44:41.039Z,28.90
2018-08-10T13:47:08.046Z,28.80
2018-08-10T13:49:34.747Z,28.70
2018-08-10T13:52:01.503Z,28.80
2018-08-10T13:54:28.204Z,29.00
2018-08-10T13:56:55.817Z,29.40
2018-08-10T13:59:22.835Z,29.40
2018-08-10T14:01:49.509Z,29.50
2018-08-10T14:04:17.019Z,29.00
2018-08-10T14:06:43.822Z,28.90
2018-08-10T14:09:10.502Z,28.60
2018-08-10T14:11:37.328Z,28.90
2018-08-10T14:14:19.678Z,28.60
2018-08-10T14:16:46.507Z,28.50
2018-08-10T14:19:13.196Z,28.80
2018-08-10T14:21:40.876Z,29.00
2018-08-10T14:24:07.791Z,28.90
2018-08-10T14:26:34.476Z,28.50
2018-08-10T14:29:01.920Z,28.20
2018-08-10T14:31:29.362Z,27.90
2018-08-10T14:33:56.089Z,27.90
2018-08-10T14:36:22.927Z,27.80
2018-08-10T14:38:49.664Z,27.90
2018-08-10T14:41:16.474Z,27.90
2018-08-10T14:43:43.174Z,27.60
2018-08-10T14:46:10.637Z,27.50
2018-08-10T14:48:38.094Z,27.30
2018-08-10T14:51:05.573Z,27.40
2018-08-10T14:53:32.310Z,27.40
2018-08-10T14:55:59.912Z,27.30
2018-08-10T14:58:26.559Z,27.30
2018-08-10T15:00:53.301Z,27.50
2018-08-10T15:03:20.144Z,27.60
2018-08-10T15:05:46.837Z,27.60
2018-08-10T15:08:14.885Z,27.20
2018-08-10T15:10:41.878Z,26.70
2018-08-10T15:13:08.652Z,26.60
2018-08-10T15:15:35.325Z,26.40
2018-08-10T15:18:02.092Z,26.40
2018-08-10T15:20:28.749Z,26.40
2018-08-10T15:22:55.460Z,26.10
2018-08-10T15:25:22.178Z,26.30
2018-08-10T15:27:48.857Z,26.20
2018-08-10T15:30:15.803Z,26.10
2018-08-10T15:32:42.528Z,25.90
2018-08-10T15:35:09.287Z,25.70
2018-08-10T15:37:36.010Z,25.60
2018-08-10T15:40:02.719Z,25.40
2018-08-10T15:42:29.441Z,25.40
2018-08-10T15:44:56.275Z,25.40
2018-08-10T15:47:23.000Z,25.50
2018-08-10T15:49:49.743Z,25.40
2018-08-10T15:52:16.453Z,25.40
2018-08-10T15:54:43.472Z,25.40
2018-08-10T15:57:10.222Z,25.40
2018-08-10T15:59:37.344Z,25.30
2018-08-10T16:02:04.882Z,25.30
2018-08-10T16:04:31.543Z,25.30
2018-08-10T16:06:58.982Z,25.40
2018-08-10T16:09:25.725Z,25.40
2018-08-10T16:11:52.387Z,25.50
2018-08-10T16:14:19.848Z,25.90
2018-08-10T16:16:47.277Z,25.80
2018-08-10T16:19:13.982Z,25.80
2018-08-10T16:21:40.678Z,25.80
2018-08-10T16:24:08.242Z,25.60
2018-08-10T16:26:35.443Z,25.60
2018-08-10T16:29:02.614Z,25.50
2018-08-10T16:31:29.477Z,25.20
2018-08-10T16:33:56.893Z,25.00
2018-08-10T16:36:24.386Z,24.80
2018-08-10T16:38:51.880Z,24.50
2018-08-10T16:41:18.578Z,24.50
2018-08-10T16:43:45.350Z,24.40
2018-08-10T16:46:12.958Z,24.30
2018-08-10T16:48:39.679Z,24.30
2018-08-10T16:51:06.408Z,24.20
2018-08-10T16:53:33.274Z,24.10
2018-08-10T16:56:00.375Z,24.00
2018-08-10T16:58:28.333Z,24.00
2018-08-10T17:00:56.108Z,23.90
2018-08-10T17:03:24.001Z,23.80
2018-08-10T17:05:50.843Z,23.80
2018-08-10T17:08:18.806Z,23.80
2018-08-10T17:10:46.209Z,23.80
2018-08-10T17:13:13.135Z,23.80
2018-08-10T17:15:39.810Z,23.80
2018-08-10T17:18:07.361Z,23.60
2018-08-10T17:20:35.135Z,23.50
2018-08-10T17:23:02.599Z,23.50
2018-08-10T17:25:30.037Z,23.30
2018-08-10T17:27:56.727Z,23.30
2018-08-10T17:30:23.989Z,23.30
2018-08-10T17:32:50.803Z,23.10
2018-08-10T17:35:17.512Z,23.10
2018-08-10T17:37:44.256Z,23.00
2018-08-10T17:40:11.145Z,22.90
2018-08-10T17:42:37.930Z,22.90
2018-08-10T17:45:04.689Z,22.80
2018-08-10T17:47:31.416Z,22.80
2018-08-10T17:49:58.849Z,22.50
2018-08-10T17:52:25.769Z,22.50
2018-08-10T17:54:52.481Z,22.40
2018-08-10T17:57:20.172Z,22.10
2018-08-10T17:59:47.004Z,22.10
2018-08-10T18:02:13.974Z,22.00
2018-08-10T18:04:41.422Z,21.90
2018-08-10T18:07:08.131Z,21.80
2018-08-10T18:09:35.611Z,21.60
2018-08-10T18:12:02.327Z,21.60
2018-08-10T18:14:29.809Z,21.50
2018-08-10T18:16:56.961Z,21.50
2018-08-10T18:19:23.804Z,21.40
2018-08-10T18:21:50.507Z,21.30
2018-08-10T18:24:17.283Z,21.30
2018-08-10T18:26:44.023Z,21.20
2018-08-10T18:29:10.871Z,21.10
2018-08-10T18:31:37.712Z,21.00
2018-08-10T18:34:04.580Z,20.90
2018-08-10T18:36:31.252Z,20.70
2018-08-10T18:38:57.995Z,20.70
2018-08-10T18:41:25.703Z,20.50
2018-08-10T18:43:52.534Z,20.50
2018-08-10T18:46:19.380Z,20.50
2018-08-10T18:48:46.213Z,20.40
2018-08-10T18:51:12.966Z,20.40
2018-08-10T18:53:39.706Z,20.20
2018-08-10T18:56:06.530Z,20.30
2018-08-10T18:58:33.802Z,20.20
2018-08-10T19:01:00.745Z,20.10
2018-08-10T19:03:27.563Z,20.10
2018-08-10T19:05:55.147Z,20.00
2018-08-10T19:08:22.102Z,19.90
2018-08-10T19:10:48.837Z,19.90
2018-08-10T19:13:16.289Z,19.90
2018-08-10T19:15:43.030Z,19.80
2018-08-10T19:18:09.979Z,19.70
2018-08-10T19:20:36.817Z,19.70
2018-08-10T19:23:03.551Z,19.60
2018-08-10T19:25:30.302Z,19.60
2018-08-10T19:27:57.243Z,19.50
2018-08-10T19:30:24.351Z,19.50
2018-08-10T19:32:51.443Z,19.40
2018-08-10T19:35:18.266Z,19.40
2018-08-10T19:37:45.744Z,19.20
2018-08-10T19:40:12.772Z,19.20
2018-08-10T19:42:39.738Z,19.10
2018-08-10T19:45:06.578Z,19.00
2018-08-10T19:47:33.532Z,19.00
2018-08-10T19:50:00.267Z,19.00
2018-08-10T19:52:27.108Z,18.90
2018-08-10T19:54:53.846Z,18.90
2018-08-10T19:57:20.590Z,19.00
2018-08-10T19:59:47.536Z,19.00
2018-08-10T20:02:14.412Z,19.00
2018-08-10T20:04:41.938Z,18.90
2018-08-10T20:07:09.596Z,18.80
2018-08-10T20:09:36.444Z,18.80
2018-08-10T20:12:03.285Z,18.70
2018-08-10T20:14:30.026Z,18.70
2018-08-10T20:16:57.275Z,18.60
2018-08-10T20:19:24.020Z,18.50
2018-08-10T20:21:50.761Z,18.50
2018-08-10T20:24:17.836Z,18.50
2018-08-10T20:26:45.901Z,18.40
2018-08-10T20:29:13.029Z,18.40
2018-08-10T20:31:40.489Z,18.40
2018-08-10T20:34:07.329Z,18.40
2018-08-10T20:36:34.066Z,18.40
2018-08-10T20:39:00.913Z,18.30
2018-08-10T20:41:27.661Z,18.20
2018-08-10T20:43:54.393Z,18.10
2018-08-10T20:46:21.337Z,18.10
2018-08-10T20:48:48.178Z,18.00
2018-08-10T20:51:15.014Z,18.00
2018-08-10T20:53:41.864Z,17.90
2018-08-10T20:56:08.590Z,17.90
2018-08-10T20:58:36.166Z,17.80
2018-08-10T21:01:03.003Z,17.80
2018-08-10T21:03:29.855Z,17.80
2018-08-10T21:05:56.718Z,17.60
2018-08-10T21:08:23.603Z,17.50
2018-08-10T21:10:50.361Z,17.50
2018-08-10T21:13:17.224Z,17.50
2018-08-10T21:15:43.941Z,17.50
2018-08-10T21:18:11.419Z,17.40
2018-08-10T21:20:38.355Z,17.40
2018-08-10T21:23:05.143Z,17.40
2018-08-10T21:25:31.855Z,17.30
2018-08-10T21:27:58.793Z,17.30
2018-08-10T21:30:25.735Z,17.20
2018-08-10T21:32:52.760Z,17.20
2018-08-10T21:35:20.436Z,17.20
2018-08-10T21:37:47.624Z,17.10
2018-08-10T21:40:14.597Z,17.10
2018-08-10T21:42:41.387Z,17.10
2018-08-10T21:45:08.948Z,17.00
2018-08-10T21:47:35.892Z,17.00
2018-08-10T21:50:02.761Z,17.00
2018-08-10T21:52:30.191Z,16.90
2018-08-10T21:54:57.540Z,16.90
2018-08-10T21:57:24.268Z,16.90
2018-08-10T21:59:50.987Z,16.90
2018-08-10T22:02:18.513Z,16.80
2018-08-10T22:04:45.336Z,16.80
2018-08-10T22:07:12.472Z,16.70
2018-08-10T22:09:39.202Z,16.70
2018-08-10T22:12:07.080Z,16.60
2018-08-10T22:14:49.692Z,16.50
2018-08-10T22:17:31.692Z,16.60
2018-08-10T22:19:58.435Z,16.50
2018-08-10T22:22:25.583Z,16.40
2018-08-10T22:24:52.415Z,16.40
2018-08-10T22:27:19.147Z,16.40
2018-08-10T22:29:46.586Z,16.30
2018-08-10T22:32:13.365Z,16.30
2018-08-10T22:34:40.101Z,16.40
2018-08-10T22:37:07.047Z,16.30
2018-08-10T22:39:35.322Z,16.30
2018-08-10T22:42:02.165Z,16.20
2018-08-10T22:44:28.989Z,16.20
2018-08-10T22:46:56.672Z,16.20
2018-08-10T22:49:23.410Z,16.20
2018-08-10T22:51:50.952Z,16.20
2018-08-10T22:54:18.414Z,16.20
2018-08-10T22:56:45.988Z,16.20
2018-08-10T22:59:14.876Z,16.10
2018-08-10T23:01:41.718Z,16.10
2018-08-10T23:04:09.999Z,16.00
2018-08-10T23:06:38.482Z,15.90
2018-08-10T23:09:05.639Z,15.90
2018-08-10T23:11:32.950Z,16.10
2018-08-10T23:13:59.933Z,15.90
2018-08-10T23:16:27.594Z,15.90
2018-08-10T23:18:54.607Z,15.90
2018-08-10T23:21:21.621Z,15.90
2018-08-10T23:23:49.212Z,15.80
2018-08-10T23:26:16.761Z,15.80
2018-08-10T23:28:43.852Z,15.70
2018-08-10T23:31:10.778Z,15.70
2018-08-10T23:33:37.740Z,15.80
2018-08-10T23:36:04.895Z,15.80
2018-08-10T23:38:32.655Z,15.80
2018-08-10T23:41:03.711Z,15.80
2018-08-10T23:43:30.742Z,15.80
2018-08-10T23:45:57.892Z,15.80
2018-08-10T23:48:25.947Z,15.80
2018-08-10T23:50:52.911Z,15.80
2018-08-10T23:53:19.730Z,15.80
2018-08-10T23:55:47.213Z,15.80
2018-08-10T23:58:14.360Z,15.80
